Florennes Air Base

EBFS · Namur, Wallonia, 比利时

罗盘
风向 的 风向 310° Florennes Air Base 8L/26R
风: 7 kt, 3 beaufort

4 kt

5 kt
改变
0 ft 1.000 2.000 3.000 4.000 5.000
Cloud Cloud Cloud Cloud
SCT 500
Cloud Cloud Cloud Cloud Cloud Cloud
BKN 600
METAR EBFS 211125Z 31007KT 9999 SCT005 BKN006 15/14 Q1013 YLO YLO BECMG GRN

METAR Florennes Air Base - EBFS

Florennes Air Base是,比利时中的中型机场。 该机场位于纬度50,24085和经度4,64879。 该机场有2条跑道: 8L/26R 和 8R/26L. 本场的ICAO机场代码为EBFS。 机场在Bruxelles FIR中。

该航空气象观测是针对Florennes Air Base在2024年6月21日 13:25, 当地时间进行的。

机场观察

风向为310°,速度为7 kt。

可见度为10 km 或者更多。

有疏云,零星散落的云朵在500 ft的高度 和 碎云在600 ft的高度。 破损或更高的上限为600 ft。

温度和风寒是15 °C。 露点为14 °C,相对湿度为94%。 海平面上的气压为1013 hPa (QNH)。

发展趋势

  • 变得

    可变方向的风很小或没有。

白天

今天,太阳从05:30升起,在21:55降落。 这适用于Florennes Air Base,世界夏令时可能有所不同。 当地时间与世界标准时间之间的时差为+2 小时。 夏令时目前正在进行中。

公司介绍

在这个机场,你可以找到飞行俱乐部。 本场上唯一已知的公司是Royal Belgian Defence Aeroclub。

体会

到Vliegles.nl去找飞行课程,跳伞和其他飞行体验。 浏览页面,了解Florennes Air Base附近所有可用的活动。 你也可以使用搜索功能来寻找你所在地附近的特定飞行课程、跳伞或其他飞行体验。

跑道

Id 标题 侧风 逆风 侧风 %
8L/26R 079°-259° 5 kt 4 kt 78 %
8R/26L 079°-259° 5 kt 4 kt 78 %

逆风成分最大的方向会被突出显示,并用于横风计算。 这并不一定意味着这个方向在使用。

乌云

500 ft SCT 疏云,零星散落的云朵
600 ft BKN 碎云

温度 & 天气

温度 15 °C
露点 14 °C
相对湿度 94%
Kp-index 0 (0-9)

白天

日出
05:30
中午
13:43
日落
21:55 (8:16)

小工具

你想在你的网站上有一个关于Florennes Air Base的当前航空天气(METAR)的小部件吗?

显示HTML代码
报告变更